Time;durP1;ratioP1;P1;durP2;ratioP2;P2;SDS_P1;SDS_P2;PMS_P1;PMS_P2;Temp;Humidity;BMP_temperature;BMP_pressure;BME280_temperature;BME280_humidity;BME280_pressure;Samples;Min_cycle;Max_cycle;Signal;HPM_P1;HPM_P2
2023/01/01 00:02:00;;;;;;;14.70;9.10;;;15.20;99.90;;;;;;5036777;28;20457;-77
2023/01/01 00:04:28;;;;;;;15.13;8.00;;;15.20;99.90;;;;;;5054530;28;20434;-77
2023/01/01 00:06:56;;;;;;;12.93;7.50;;;15.20;99.90;;;;;;5036718;28;20834;-78
2023/01/01 00:12:11;;;;;;;10.10;6.93;;;15.20;99.90;;;;;;5036717;28;20450;-77
2023/01/01 00:14:41;;;;;;;13.50;7.37;;;15.20;99.90;;;;;;5054584;28;20545;-78
2023/01/01 00:17:10;;;;;;;9.50;6.93;;;15.20;99.90;;;;;;5036585;28;20572;-79
2023/01/01 00:19:38;;;;;;;9.40;8.20;;;15.20;99.90;;;;;;5036306;28;20445;-78
2023/01/01 00:22:06;;;;;;;13.57;6.70;;;15.20;99.90;;;;;;5036389;28;20450;-79
2023/01/01 00:24:54;;;;;;;10.60;6.10;;;15.20;99.90;;;;;;5036240;28;20442;-77
2023/01/01 00:27:23;;;;;;;10.47;6.20;;;15.20;99.90;;;;;;5054226;28;20435;-78
2023/01/01 00:29:52;;;;;;;9.70;6.00;;;15.20;99.90;;;;;;5054750;28;20457;-77
2023/01/01 00:32:20;;;;;;;12.13;6.93;;;15.20;99.90;;;;;;5039831;28;20454;-77
2023/01/01 00:34:50;;;;;;;11.80;6.80;;;15.20;99.90;;;;;;5038817;28;20476;-78
2023/01/01 00:37:18;;;;;;;35.97;32.60;;;15.20;99.90;;;;;;5039674;28;20987;-78
2023/01/01 00:39:46;;;;;;;11.13;6.47;;;15.20;99.90;;;;;;5039450;28;20453;-78
2023/01/01 00:42:14;;;;;;;9.93;6.80;;;15.20;99.90;;;;;;5056903;28;20443;-78
2023/01/01 00:44:44;;;;;;;10.07;7.00;;;15.30;99.90;;;;;;5039178;28;20947;-77
2023/01/01 00:47:12;;;;;;;11.30;6.17;;;15.30;99.90;;;;;;5039137;28;20452;-78
2023/01/01 00:49:40;;;;;;;13.30;6.60;;;15.30;99.90;;;;;;5057002;28;20962;-78
2023/01/01 00:52:08;;;;;;;10.23;6.30;;;15.30;99.90;;;;;;5038994;28;20446;-77
2023/01/01 00:54:36;;;;;;;11.67;6.70;;;15.30;99.90;;;;;;5043249;28;20446;-78
2023/01/01 00:57:05;;;;;;;9.97;5.63;;;15.30;99.90;;;;;;5042845;28;20480;-78
2023/01/01 00:59:33;;;;;;;10.13;6.20;;;15.30;99.90;;;;;;5043624;28;20450;-78
2023/01/01 01:02:02;;;;;;;9.83;6.37;;;15.30;99.90;;;;;;5061274;28;20442;-78
2023/01/01 01:04:30;;;;;;;14.43;6.60;;;15.30;99.90;;;;;;5042008;28;20438;-77
2023/01/01 01:06:59;;;;;;;13.93;6.23;;;15.30;99.90;;;;;;5043442;28;20465;-77
2023/01/01 01:09:27;;;;;;;10.00;5.73;;;15.40;99.90;;;;;;5043988;28;20450;-78
2023/01/01 01:11:55;;;;;;;11.00;6.13;;;15.40;99.90;;;;;;5044357;28;20457;-79
2023/01/01 01:14:43;;;;;;;14.67;7.67;;;15.40;99.90;;;;;;5062047;28;20434;-78
2023/01/01 01:17:12;;;;;;;8.50;6.80;;;15.40;99.90;;;;;;5062365;28;20480;-78
2023/01/01 01:19:41;;;;;;;8.40;7.00;;;15.40;99.90;;;;;;5044052;28;20450;-77
2023/01/01 01:22:09;;;;;;;10.90;7.07;;;15.40;99.90;;;;;;5043451;28;20458;-77
2023/01/01 01:24:37;;;;;;;14.50;6.77;;;15.40;99.90;;;;;;5044546;28;20454;-78
2023/01/01 01:27:05;;;;;;;9.87;8.10;;;15.40;99.90;;;;;;5061925;28;20552;-78
2023/01/01 01:29:33;;;;;;;10.97;6.00;;;15.40;99.90;;;;;;5061244;28;20813;-78
2023/01/01 01:32:01;;;;;;;11.30;6.57;;;15.40;99.90;;;;;;5044949;28;20525;-77
2023/01/01 01:34:31;;;;;;;9.23;6.40;;;15.40;99.90;;;;;;5044654;28;20447;-79
2023/01/01 01:36:59;;;;;;;10.33;6.40;;;15.40;99.90;;;;;;5044047;28;20540;-78
2023/01/01 01:39:27;;;;;;;10.87;6.87;;;15.40;99.90;;;;;;5065562;28;20434;-78
2023/01/01 01:41:56;;;;;;;8.43;6.17;;;15.40;99.90;;;;;;5047164;28;20473;-78
2023/01/01 01:44:51;;;;;;;10.67;5.63;;;15.30;99.90;;;;;;5046645;28;20549;-78
2023/01/01 01:47:26;;;;;;;10.87;6.03;;;15.30;99.90;;;;;;5040593;28;20958;-78
2023/01/01 01:50:02;;;;;;;11.57;6.37;;;15.30;99.90;;;;;;5059052;28;20429;-77
2023/01/01 01:52:32;;;;;;;11.30;7.30;;;15.30;99.90;;;;;;5041110;28;20442;-78
2023/01/01 01:55:03;;;;;;;10.00;6.90;;;15.30;99.90;;;;;;5040901;28;20438;-78
2023/01/01 01:57:32;;;;;;;14.43;7.50;;;15.30;99.90;;;;;;5041637;28;20458;-77
2023/01/01 02:00:03;;;;;;;10.53;7.90;;;15.30;99.90;;;;;;5040733;28;20508;-77
2023/01/01 02:02:46;;;;;;;10.97;8.10;;;15.30;99.90;;;;;;5040497;28;20488;-77
2023/01/01 02:05:17;;;;;;;11.20;7.50;;;15.30;99.90;;;;;;5059917;28;20454;-79
2023/01/01 02:07:45;;;;;;;15.03;8.60;;;15.30;99.90;;;;;;5062153;28;20445;-78
2023/01/01 02:10:13;;;;;;;10.23;8.03;;;15.30;99.90;;;;;;5044389;28;20446;-79
2023/01/01 02:12:42;;;;;;;14.20;8.30;;;15.30;99.90;;;;;;5043353;28;20464;-77
2023/01/01 02:15:10;;;;;;;10.67;8.10;;;15.30;99.90;;;;;;5040804;28;20474;-79
2023/01/01 02:17:46;;;;;;;12.40;8.33;;;15.30;99.90;;;;;;5042217;28;20470;-79
2023/01/01 02:20:35;;;;;;;9.90;8.00;;;15.40;99.90;;;;;;5044135;28;20456;-78
2023/01/01 02:23:43;;;;;;;11.90;8.80;;;15.40;99.90;;;;;;5043188;28;20449;-79
2023/01/01 02:26:38;;;;;;;15.67;8.20;;;15.40;99.90;;;;;;5041477;28;20465;-79
2023/01/01 02:29:19;;;;;;;12.57;7.90;;;15.40;99.90;;;;;;5041148;28;20448;-77
2023/01/01 02:31:54;;;;;;;9.97;7.83;;;15.40;99.90;;;;;;5039471;28;20450;-78
2023/01/01 02:34:26;;;;;;;12.50;7.40;;;15.40;99.90;;;;;;5040011;28;20536;-79
2023/01/01 02:36:57;;;;;;;13.40;7.20;;;15.40;99.90;;;;;;5041953;28;20480;-78
2023/01/01 02:39:30;;;;;;;11.33;9.07;;;15.40;99.90;;;;;;5043145;28;20486;-78
2023/01/01 02:42:00;;;;;;;12.03;7.57;;;15.40;99.90;;;;;;5061273;28;20426;-77
2023/01/01 02:44:34;;;;;;;14.47;7.40;;;15.30;99.90;;;;;;5062610;28;20469;-78
2023/01/01 02:47:12;;;;;;;12.20;7.07;;;15.30;99.90;;;;;;5044980;28;20465;-78
2023/01/01 02:49:53;;;;;;;12.23;7.50;;;15.30;99.90;;;;;;5041382;28;20452;-79
2023/01/01 02:52:47;;;;;;;13.17;7.80;;;15.30;99.90;;;;;;5041151;28;20448;-78
2023/01/01 02:55:27;;;;;;;11.87;8.00;;;15.30;99.90;;;;;;5057143;28;20497;-78
2023/01/01 03:00:18;;;;;;;9.77;7.30;;;15.30;99.90;;;;;;5043885;28;20971;-78
2023/01/01 03:00:56;;;;;;;10.83;7.20;;;15.20;99.90;;;;;;5058898;28;20480;-79
2023/01/01 03:03:30;;;;;;;12.23;7.43;;;15.20;99.90;;;;;;5061397;28;20421;-78
2023/01/01 03:06:23;;;;;;;9.90;7.47;;;15.20;99.90;;;;;;5061121;28;20515;-78
2023/01/01 03:09:00;;;;;;;10.23;7.30;;;15.20;99.90;;;;;;5042108;28;20446;-78
2023/01/01 03:11:35;;;;;;;11.63;7.00;;;15.10;99.90;;;;;;5043238;28;20434;-78
2023/01/01 03:14:08;;;;;;;13.67;7.80;;;15.10;99.90;;;;;;5043334;28;20448;-78
2023/01/01 03:16:42;;;;;;;10.03;7.10;;;15.10;99.90;;;;;;5060234;28;20460;-78
2023/01/01 03:19:16;;;;;;;9.97;7.17;;;15.10;99.90;;;;;;5043257;28;20469;-79
2023/01/01 03:21:49;;;;;;;10.97;7.20;;;15.10;99.90;;;;;;5062653;28;20414;-79
2023/01/01 03:24:22;;;;;;;12.20;7.80;;;15.10;99.90;;;;;;5062849;28;20533;-79
2023/01/01 03:26:57;;;;;;;10.47;7.67;;;15.10;99.90;;;;;;5041652;28;20571;-79
2023/01/01 03:29:28;;;;;;;11.37;7.57;;;15.10;99.90;;;;;;5059068;28;20425;-77
2023/01/01 03:32:00;;;;;;;11.60;7.23;;;15.10;99.90;;;;;;5039118;28;20450;-78
2023/01/01 03:34:32;;;;;;;14.37;7.97;;;15.10;99.90;;;;;;5058916;28;20430;-78
2023/01/01 03:37:05;;;;;;;9.40;8.50;;;15.10;99.90;;;;;;5041145;28;20485;-76
2023/01/01 03:39:37;;;;;;;11.00;7.77;;;15.10;99.90;;;;;;5058631;28;20941;-76
2023/01/01 03:42:15;;;;;;;10.37;7.03;;;15.10;99.90;;;;;;5041769;28;20822;-78
2023/01/01 03:44:47;;;;;;;10.20;6.77;;;15.00;99.90;;;;;;5059433;28;20521;-78
2023/01/01 03:47:17;;;;;;;9.83;7.47;;;15.00;99.90;;;;;;5073883;28;20406;-78
2023/01/01 03:49:46;;;;;;;10.23;6.83;;;15.00;99.90;;;;;;5060289;28;20454;-78
2023/01/01 03:52:32;;;;;;;10.70;6.70;;;15.00;99.90;;;;;;5061487;28;20497;-79
2023/01/01 03:55:09;;;;;;;7.70;6.10;;;15.00;99.90;;;;;;5061268;28;20456;-77
2023/01/01 03:57:44;;;;;;;10.50;6.33;;;15.00;99.90;;;;;;5055764;28;20552;-79
2023/01/01 04:00:15;;;;;;;12.00;5.57;;;14.90;99.90;;;;;;5057899;28;20441;-79
2023/01/01 04:02:52;;;;;;;7.20;5.20;;;15.00;99.90;;;;;;5075473;28;20449;-78
2023/01/01 04:05:22;;;;;;;8.53;5.13;;;15.00;99.90;;;;;;5055437;28;20477;-79
2023/01/01 04:07:51;;;;;;;9.27;5.20;;;15.00;99.90;;;;;;5052898;28;20426;-79
2023/01/01 04:10:21;;;;;;;8.93;5.23;;;15.00;99.90;;;;;;5072365;28;20506;-79
2023/01/01 04:12:50;;;;;;;8.17;4.90;;;15.00;99.90;;;;;;5070359;28;20456;-79
2023/01/01 04:15:20;;;;;;;7.13;4.57;;;15.00;99.90;;;;;;5048186;28;20462;-79
2023/01/01 04:17:50;;;;;;;8.07;4.40;;;15.00;99.90;;;;;;5047220;28;20470;-78
2023/01/01 04:20:19;;;;;;;8.70;5.60;;;15.00;99.90;;;;;;5047698;28;20449;-79
2023/01/01 04:22:47;;;;;;;7.70;5.00;;;15.00;99.90;;;;;;5046427;28;20461;-79
2023/01/01 04:25:16;;;;;;;11.10;5.53;;;15.00;99.90;;;;;;5046443;28;20494;-79
2023/01/01 04:27:45;;;;;;;10.00;4.70;;;15.00;99.90;;;;;;5044427;28;20549;-79
2023/01/01 04:30:15;;;;;;;10.17;5.10;;;15.00;99.90;;;;;;5048374;28;20831;-79
2023/01/01 04:32:43;;;;;;;10.27;4.90;;;15.10;99.90;;;;;;5049010;28;20481;-79
2023/01/01 04:35:14;;;;;;;7.80;5.10;;;15.10;99.90;;;;;;5046622;28;20458;-79
2023/01/01 04:37:44;;;;;;;12.37;5.10;;;15.10;99.90;;;;;;5044007;28;20448;-78
2023/01/01 04:40:13;;;;;;;8.27;5.17;;;15.10;99.90;;;;;;5065733;28;20481;-80
2023/01/01 04:42:43;;;;;;;7.50;4.70;;;15.10;99.90;;;;;;5049537;28;20477;-79
2023/01/01 04:45:13;;;;;;;8.73;4.70;;;15.10;99.90;;;;;;5048237;28;20816;-80
2023/01/01 04:47:42;;;;;;;12.13;5.27;;;15.10;99.90;;;;;;5047415;28;20484;-77
2023/01/01 04:50:12;;;;;;;9.60;4.40;;;15.10;99.90;;;;;;5045005;28;20803;-79
2023/01/01 04:52:40;;;;;;;7.93;4.13;;;15.10;99.90;;;;;;5046801;28;20919;-79
2023/01/01 04:55:09;;;;;;;8.60;4.20;;;15.10;99.90;;;;;;5044187;28;20462;-78
2023/01/01 04:57:37;;;;;;;7.93;4.50;;;15.10;99.90;;;;;;5056002;28;20454;-79
2023/01/01 05:00:06;;;;;;;10.50;4.13;;;15.10;99.90;;;;;;5057388;28;20484;-79
2023/01/01 05:02:34;;;;;;;9.03;4.17;;;15.10;99.90;;;;;;5059253;28;20442;-78
2023/01/01 05:05:03;;;;;;;8.10;3.77;;;15.10;99.90;;;;;;5050747;28;20446;-79
2023/01/01 05:07:33;;;;;;;6.13;3.67;;;15.10;99.90;;;;;;5067627;28;20855;-79
2023/01/01 05:10:01;;;;;;;8.10;3.70;;;15.10;99.90;;;;;;5067408;28;20948;-79
2023/01/01 05:12:30;;;;;;;7.13;3.93;;;15.10;99.90;;;;;;5066758;28;20962;-79
2023/01/01 05:14:58;;;;;;;7.30;3.60;;;15.10;99.90;;;;;;5049071;28;20477;-78
2023/01/01 05:17:26;;;;;;;7.47;3.87;;;15.10;99.90;;;;;;5065645;28;20441;-78
2023/01/01 05:19:54;;;;;;;6.87;4.43;;;15.10;99.90;;;;;;5064578;28;20967;-80
2023/01/01 05:22:22;;;;;;;6.83;3.40;;;15.10;99.90;;;;;;5042809;28;20897;-77
2023/01/01 05:24:52;;;;;;;7.23;3.33;;;15.10;99.90;;;;;;5043065;28;20454;-78
2023/01/01 05:27:20;;;;;;;7.63;3.20;;;15.10;99.90;;;;;;5045199;28;20549;-79
2023/01/01 05:29:48;;;;;;;7.70;4.23;;;15.10;99.90;;;;;;5043270;28;20454;-78
2023/01/01 05:32:16;;;;;;;6.40;3.47;;;15.10;99.90;;;;;;5042746;28;20442;-78
2023/01/01 05:34:44;;;;;;;11.07;3.50;;;15.10;99.90;;;;;;5062782;28;20492;-78
2023/01/01 05:37:12;;;;;;;5.90;3.50;;;15.10;99.90;;;;;;5061942;28;20450;-79
2023/01/01 05:39:40;;;;;;;7.63;4.13;;;15.10;99.90;;;;;;5064728;28;20473;-79
2023/01/01 05:42:09;;;;;;;5.73;3.67;;;15.10;99.90;;;;;;5045279;28;20453;-79
2023/01/01 05:44:37;;;;;;;8.83;4.10;;;15.10;99.90;;;;;;5044478;28;20473;-78
2023/01/01 05:47:06;;;;;;;8.00;3.10;;;15.10;99.90;;;;;;5041748;28;20466;-80
2023/01/01 05:49:35;;;;;;;7.93;3.30;;;15.10;99.90;;;;;;5045374;28;20449;-77
2023/01/01 05:52:03;;;;;;;7.33;3.20;;;15.10;99.90;;;;;;5043666;28;20458;-80
2023/01/01 05:54:32;;;;;;;8.57;3.57;;;15.10;99.90;;;;;;5042186;28;20476;-77
2023/01/01 05:57:00;;;;;;;9.03;3.50;;;15.10;99.90;;;;;;5043391;28;20468;-78
2023/01/01 05:59:29;;;;;;;8.50;3.53;;;15.00;99.90;;;;;;5059032;28;20492;-77
2023/01/01 06:01:58;;;;;;;6.37;3.30;;;15.00;99.90;;;;;;5060904;28;20473;-78
2023/01/01 06:04:26;;;;;;;5.97;2.90;;;15.00;99.90;;;;;;5061156;28;20529;-78
2023/01/01 06:06:54;;;;;;;7.60;3.10;;;15.00;99.90;;;;;;5060527;28;20466;-77
2023/01/01 06:09:22;;;;;;;7.40;3.10;;;15.00;99.90;;;;;;5040723;28;20446;-78
2023/01/01 06:11:51;;;;;;;6.50;3.50;;;15.00;99.90;;;;;;5060110;28;20965;-78
2023/01/01 06:14:19;;;;;;;8.90;3.30;;;15.10;99.90;;;;;;5043847;28;20458;-79
2023/01/01 06:16:48;;;;;;;9.13;3.83;;;15.00;99.90;;;;;;5059244;28;20454;-78
2023/01/01 06:19:17;;;;;;;11.57;3.67;;;15.00;99.90;;;;;;5058848;28;20558;-79
2023/01/01 06:21:45;;;;;;;5.00;2.70;;;15.00;99.90;;;;;;5063396;28;20438;-78
2023/01/01 06:24:13;;;;;;;7.20;3.67;;;15.00;99.90;;;;;;5042099;28;20454;-78
2023/01/01 06:26:41;;;;;;;5.73;3.07;;;15.00;99.90;;;;;;5058837;28;20870;-78
2023/01/01 06:29:09;;;;;;;6.77;3.20;;;15.00;99.90;;;;;;5041556;28;20865;-77
2023/01/01 06:31:37;;;;;;;5.47;2.50;;;15.00;99.90;;;;;;5041186;28;20557;-78
2023/01/01 06:34:09;;;;;;;7.07;2.70;;;15.00;99.90;;;;;;5041762;28;20442;-77
2023/01/01 06:36:37;;;;;;;5.17;2.23;;;15.00;99.90;;;;;;5040858;28;21004;-78
2023/01/01 06:39:06;;;;;;;7.43;2.80;;;15.00;99.90;;;;;;5041613;28;20473;-78
2023/01/01 06:41:34;;;;;;;5.87;2.20;;;15.00;99.90;;;;;;5060150;28;20437;-78
2023/01/01 06:44:03;;;;;;;5.33;2.20;;;14.90;99.90;;;;;;5042090;28;20453;-77
2023/01/01 06:46:32;;;;;;;6.57;2.17;;;14.90;99.90;;;;;;5041749;28;20875;-77
2023/01/01 06:49:03;;;;;;;6.00;2.30;;;14.90;99.90;;;;;;5041592;28;20955;-78
2023/01/01 06:51:36;;;;;;;5.53;2.87;;;14.90;99.90;;;;;;5057189;28;20469;-76
2023/01/01 06:54:05;;;;;;;4.20;2.00;;;14.90;99.90;;;;;;5037494;28;20537;-77
2023/01/01 06:56:34;;;;;;;4.50;2.40;;;14.90;99.90;;;;;;5040059;28;20505;-77
2023/01/01 06:59:04;;;;;;;6.63;2.17;;;14.90;99.90;;;;;;5039739;28;20515;-78
2023/01/01 07:01:34;;;;;;;4.80;2.37;;;14.90;99.90;;;;;;5040829;28;20450;-77
2023/01/01 07:04:04;;;;;;;6.07;2.60;;;14.90;99.90;;;;;;5058905;28;20444;-78
2023/01/01 07:06:35;;;;;;;7.67;2.30;;;14.80;99.90;;;;;;5041285;28;20473;-77
2023/01/01 07:09:04;;;;;;;7.93;2.20;;;14.80;99.90;;;;;;5040375;28;20554;-77
2023/01/01 07:11:33;;;;;;;6.07;2.17;;;14.80;99.90;;;;;;5041375;28;20444;-78
2023/01/01 07:14:01;;;;;;;8.33;2.33;;;14.80;99.90;;;;;;5041420;28;20450;-78
2023/01/01 07:16:29;;;;;;;5.03;2.20;;;14.80;99.90;;;;;;5040720;28;20465;-77
2023/01/01 07:18:58;;;;;;;4.40;2.50;;;14.80;99.90;;;;;;5040616;28;20803;-78
2023/01/01 07:21:31;;;;;;;5.30;2.90;;;14.80;99.90;;;;;;5041281;28;20819;-78
2023/01/01 07:24:03;;;;;;;4.80;2.10;;;14.80;99.90;;;;;;5040780;28;20446;-78
2023/01/01 07:26:33;;;;;;;7.60;4.13;;;14.80;99.90;;;;;;5056675;28;20508;-78
2023/01/01 07:29:01;;;;;;;4.73;2.00;;;14.80;99.90;;;;;;5058266;28;20485;-78
2023/01/01 07:31:36;;;;;;;6.63;3.37;;;14.70;99.90;;;;;;5039821;28;20857;-77
2023/01/01 07:34:04;;;;;;;6.40;2.27;;;14.70;99.90;;;;;;5038778;28;20527;-79
2023/01/01 07:36:33;;;;;;;5.17;2.10;;;14.70;99.90;;;;;;5058638;28;20840;-77
2023/01/01 07:39:03;;;;;;;5.30;2.27;;;14.70;99.90;;;;;;5057306;28;20500;-78
2023/01/01 07:41:31;;;;;;;6.13;2.00;;;14.70;99.90;;;;;;5040242;28;20565;-78
2023/01/01 07:43:59;;;;;;;4.77;2.37;;;14.70;99.90;;;;;;5040704;28;20896;-77
2023/01/01 07:46:27;;;;;;;5.30;1.80;;;14.60;99.90;;;;;;5039616;28;20532;-76
2023/01/01 07:48:56;;;;;;;4.13;1.70;;;14.60;99.90;;;;;;5039745;28;20457;-77
2023/01/01 07:51:24;;;;;;;4.07;2.00;;;14.60;99.90;;;;;;5058827;28;20823;-79
2023/01/01 07:53:53;;;;;;;4.87;2.10;;;14.60;99.90;;;;;;5038918;28;20812;-77
2023/01/01 07:56:22;;;;;;;6.40;2.50;;;14.60;99.90;;;;;;5036958;28;20485;-76
2023/01/01 07:58:51;;;;;;;6.60;3.37;;;14.60;99.90;;;;;;5036238;28;20457;-76
2023/01/01 08:01:19;;;;;;;6.43;2.23;;;14.60;99.90;;;;;;5054111;28;20470;-76
2023/01/01 08:03:52;;;;;;;6.93;2.17;;;14.60;99.90;;;;;;5058435;28;20430;-76
2023/01/01 08:06:21;;;;;;;3.60;2.10;;;14.60;99.90;;;;;;5059868;28;20553;-78
2023/01/01 08:08:50;;;;;;;5.70;2.30;;;14.60;99.90;;;;;;5059473;28;20430;-79
2023/01/01 08:11:18;;;;;;;5.90;2.23;;;14.60;99.90;;;;;;5040450;28;20450;-77
2023/01/01 08:13:47;;;;;;;6.77;3.30;;;14.60;99.90;;;;;;5060136;28;20422;-77
2023/01/01 08:16:16;;;;;;;7.93;2.77;;;14.60;99.90;;;;;;5062537;28;20496;-78
2023/01/01 08:18:44;;;;;;;7.67;2.20;;;14.50;99.90;;;;;;5042069;28;21015;-78
2023/01/01 08:21:12;;;;;;;4.97;2.93;;;14.50;99.90;;;;;;5045550;28;20477;-79
2023/01/01 08:23:40;;;;;;;6.17;2.50;;;14.50;99.90;;;;;;5042903;28;20970;-78
2023/01/01 08:26:14;;;;;;;6.57;2.70;;;14.50;99.90;;;;;;5041672;28;20469;-79
2023/01/01 08:28:43;;;;;;;5.23;2.10;;;14.50;99.90;;;;;;5044865;28;20467;-78
2023/01/01 08:31:13;;;;;;;6.50;2.40;;;14.50;99.90;;;;;;5046185;28;20453;-76
2023/01/01 08:33:41;;;;;;;5.00;2.27;;;14.50;99.90;;;;;;5061797;28;20456;-78
2023/01/01 08:36:12;;;;;;;5.60;2.23;;;14.50;99.90;;;;;;5044251;28;20473;-77
2023/01/01 08:38:41;;;;;;;9.73;3.30;;;14.50;99.90;;;;;;5044617;28;20445;-77
2023/01/01 08:41:09;;;;;;;5.27;2.13;;;14.40;99.90;;;;;;5041360;28;20469;-78
2023/01/01 08:43:37;;;;;;;6.40;2.20;;;14.50;99.90;;;;;;5044418;28;20456;-79
2023/01/01 08:46:05;;;;;;;7.77;2.83;;;14.40;99.90;;;;;;5045769;28;20569;-78
2023/01/01 08:48:35;;;;;;;5.80;2.33;;;14.40;99.90;;;;;;5045770;28;20452;-78
2023/01/01 08:51:03;;;;;;;6.83;2.27;;;14.50;99.90;;;;;;5041879;28;20458;-78
2023/01/01 08:53:32;;;;;;;4.87;1.87;;;14.40;99.90;;;;;;5041767;28;21018;-77
2023/01/01 08:56:02;;;;;;;4.23;2.00;;;14.40;99.90;;;;;;5042035;28;20474;-77
2023/01/01 08:58:31;;;;;;;4.80;1.80;;;14.40;99.90;;;;;;5040957;28;20442;-77
2023/01/01 09:00:59;;;;;;;6.00;2.17;;;14.40;99.90;;;;;;5041407;28;20465;-77
2023/01/01 09:03:28;;;;;;;6.63;2.43;;;14.40;99.90;;;;;;5042637;28;20495;-78
2023/01/01 09:05:58;;;;;;;6.57;2.63;;;14.50;99.90;;;;;;5040979;28;20501;-78
2023/01/01 09:08:27;;;;;;;6.53;2.17;;;14.40;99.90;;;;;;5040858;28;20445;-78
2023/01/01 09:10:59;;;;;;;6.80;2.57;;;14.50;99.90;;;;;;5040932;28;20458;-78
2023/01/01 09:13:27;;;;;;;4.67;1.70;;;14.50;99.90;;;;;;5040424;28;20808;-77
2023/01/01 09:15:56;;;;;;;5.23;1.83;;;14.50;99.90;;;;;;5039754;28;20488;-78
2023/01/01 09:18:24;;;;;;;3.97;1.60;;;14.50;99.90;;;;;;5059947;28;20434;-76
2023/01/01 09:20:52;;;;;;;5.50;2.73;;;14.50;99.90;;;;;;5041279;28;20466;-78
2023/01/01 09:23:21;;;;;;;5.03;1.87;;;14.50;99.90;;;;;;5061781;28;20541;-78
2023/01/01 09:25:50;;;;;;;5.33;1.83;;;14.50;99.90;;;;;;5060103;28;20458;-78
2023/01/01 09:28:18;;;;;;;5.33;1.57;;;14.50;99.90;;;;;;5062040;28;20438;-77
2023/01/01 09:30:53;;;;;;;5.03;1.67;;;14.50;99.90;;;;;;5060226;28;20504;-79
2023/01/01 09:33:21;;;;;;;4.30;1.40;;;14.50;99.90;;;;;;5042019;28;20449;-77
2023/01/01 09:35:49;;;;;;;4.83;1.83;;;14.50;99.90;;;;;;5057665;28;20560;-77
2023/01/01 09:38:18;;;;;;;3.93;1.40;;;14.50;99.90;;;;;;5058513;28;20851;-78
2023/01/01 09:40:56;;;;;;;3.67;1.00;;;14.50;99.90;;;;;;5039621;28;20497;-77
2023/01/01 09:43:35;;;;;;;5.17;1.37;;;14.50;99.90;;;;;;5044852;28;20514;-78
2023/01/01 09:46:06;;;;;;;5.30;1.50;;;14.50;99.90;;;;;;5059407;28;20456;-79
2023/01/01 09:48:38;;;;;;;3.40;1.40;;;14.50;99.90;;;;;;5040947;28;20465;-77
2023/01/01 09:51:15;;;;;;;3.50;1.17;;;14.50;99.90;;;;;;5038764;28;20512;-77
2023/01/01 09:53:48;;;;;;;3.17;1.27;;;14.50;99.90;;;;;;5039453;28;20444;-79
2023/01/01 09:56:23;;;;;;;2.87;1.00;;;14.40;99.90;;;;;;5039357;28;20484;-78
2023/01/01 09:58:52;;;;;;;3.03;1.20;;;14.40;99.90;;;;;;5039370;28;20442;-78
2023/01/01 10:01:33;;;;;;;3.40;0.90;;;14.40;99.90;;;;;;5041358;28;20556;-78
2023/01/01 10:04:08;;;;;;;4.57;1.00;;;14.40;99.90;;;;;;5043177;28;20442;-78
2023/01/01 10:06:44;;;;;;;3.93;1.00;;;14.40;99.90;;;;;;5058637;28;20469;-78
2023/01/01 10:09:19;;;;;;;5.17;1.00;;;14.40;99.90;;;;;;5040934;28;20444;-78
2023/01/01 10:11:56;;;;;;;4.23;1.20;;;14.40;99.90;;;;;;5060615;28;20488;-79
2023/01/01 10:14:30;;;;;;;3.70;1.13;;;14.40;99.90;;;;;;5041272;28;20954;-79
2023/01/01 10:17:04;;;;;;;6.63;1.30;;;14.40;99.90;;;;;;5042074;28;20509;-78
2023/01/01 10:19:37;;;;;;;2.97;0.90;;;14.40;99.90;;;;;;5072220;28;20521;-78
2023/01/01 10:22:10;;;;;;;3.80;1.57;;;14.40;99.90;;;;;;5054763;28;20566;-78
2023/01/01 10:24:44;;;;;;;3.53;1.00;;;14.40;99.90;;;;;;5070377;28;20480;-79
2023/01/01 10:27:26;;;;;;;4.00;1.30;;;14.40;99.90;;;;;;5053785;28;20450;-80
2023/01/01 10:29:54;;;;;;;2.90;1.10;;;14.30;99.90;;;;;;5051695;28;20427;-78
2023/01/01 10:32:33;;;;;;;4.10;1.07;;;14.30;99.90;;;;;;5069749;28;20465;-79
2023/01/01 10:35:03;;;;;;;5.10;1.00;;;14.30;99.90;;;;;;5067675;28;20505;-78
2023/01/01 10:37:36;;;;;;;3.47;1.13;;;14.20;99.90;;;;;;5046376;28;20481;-77
2023/01/01 10:40:14;;;;;;;5.33;1.20;;;14.20;99.90;;;;;;5046625;28;20480;-77
2023/01/01 10:42:47;;;;;;;4.30;1.00;;;14.20;99.90;;;;;;5065762;28;20462;-78
2023/01/01 10:45:18;;;;;;;2.80;1.00;;;14.20;99.90;;;;;;5046317;28;21016;-79
2023/01/01 10:48:12;;;;;;;3.50;1.10;;;14.20;99.90;;;;;;5044702;28;20452;-78
2023/01/01 10:50:46;;;;;;;5.90;1.50;;;14.20;99.90;;;;;;5061887;28;20453;-77
2023/01/01 10:53:24;;;;;;;3.37;1.00;;;14.20;99.90;;;;;;5046285;28;20864;-78
2023/01/01 10:56:04;;;;;;;3.90;1.10;;;14.20;99.90;;;;;;5068106;28;20465;-77
2023/01/01 10:58:46;;;;;;;3.47;1.27;;;14.10;99.90;;;;;;5065766;28;20497;-78
2023/01/01 11:01:21;;;;;;;3.90;1.40;;;14.10;99.90;;;;;;5040457;28;20473;-79
2023/01/01 11:03:55;;;;;;;4.30;1.50;;;14.10;99.90;;;;;;5045397;28;20444;-79
2023/01/01 11:06:26;;;;;;;4.33;1.13;;;14.10;99.90;;;;;;5057797;28;20452;-79
2023/01/01 11:08:57;;;;;;;3.00;1.03;;;14.00;99.90;;;;;;5038622;28;20434;-77
2023/01/01 11:11:30;;;;;;;6.03;2.10;;;14.00;99.90;;;;;;5037774;28;20442;-76
2023/01/01 11:14:04;;;;;;;6.80;1.67;;;14.00;99.90;;;;;;5055388;28;20441;-78
2023/01/01 11:16:33;;;;;;;4.07;1.20;;;14.00;99.90;;;;;;5038587;28;20474;-79
2023/01/01 11:19:03;;;;;;;7.60;2.50;;;13.90;99.90;;;;;;5040445;28;20515;-78
2023/01/01 11:21:33;;;;;;;9.83;5.07;;;13.90;99.90;;;;;;5038033;28;20930;-78
2023/01/01 11:24:17;;;;;;;13.17;5.43;;;13.90;99.90;;;;;;5042134;28;20473;-79
2023/01/01 11:26:46;;;;;;;8.30;2.63;;;13.90;99.90;;;;;;5042898;28;20557;-78
2023/01/01 11:29:28;;;;;;;7.20;1.80;;;13.90;99.90;;;;;;5039118;28;20465;-77
2023/01/01 11:31:59;;;;;;;5.23;1.90;;;13.90;99.90;;;;;;5058700;28;20517;-78
2023/01/01 11:34:32;;;;;;;7.77;2.43;;;13.80;99.90;;;;;;5058401;28;20441;-78
2023/01/01 11:37:10;;;;;;;6.83;1.70;;;13.80;99.90;;;;;;5040025;28;20480;-78
2023/01/01 11:39:43;;;;;;;6.47;1.63;;;13.80;99.90;;;;;;5057584;28;20414;-77
2023/01/01 11:42:17;;;;;;;4.17;1.80;;;13.80;99.90;;;;;;5056200;28;20516;-78
2023/01/01 11:44:50;;;;;;;7.50;1.50;;;13.80;99.90;;;;;;5037518;28;20465;-77
2023/01/01 11:47:25;;;;;;;4.37;1.30;;;13.70;99.90;;;;;;5057071;28;20423;-78
2023/01/01 11:49:56;;;;;;;6.53;2.00;;;13.70;99.90;;;;;;5060326;28;20472;-79
2023/01/01 11:52:38;;;;;;;5.97;2.63;;;13.70;99.90;;;;;;5038645;28;20453;-78
2023/01/01 11:55:24;;;;;;;7.23;1.23;;;13.70;99.90;;;;;;5042440;28;20474;-78
2023/01/01 11:58:01;;;;;;;4.07;1.60;;;13.70;99.90;;;;;;5039203;28;20449;-79
2023/01/01 12:00:36;;;;;;;5.80;1.83;;;13.70;99.90;;;;;;5041123;28;20545;-77
2023/01/01 12:03:15;;;;;;;5.13;1.47;;;13.70;99.90;;;;;;5036633;28;20469;-77
2023/01/01 12:05:50;;;;;;;7.10;1.77;;;13.70;99.90;;;;;;5040401;28;20568;-79
2023/01/01 12:08:31;;;;;;;8.20;2.23;;;13.70;99.90;;;;;;5060548;28;20424;-78
2023/01/01 12:11:07;;;;;;;4.70;1.37;;;13.70;99.90;;;;;;5037200;28;20500;-77
2023/01/01 12:13:45;;;;;;;9.17;2.00;;;13.80;99.90;;;;;;5036691;28;20440;-77
2023/01/01 12:16:20;;;;;;;5.70;1.70;;;13.80;99.90;;;;;;5042049;28;20473;-78
2023/01/01 12:18:55;;;;;;;8.90;2.23;;;13.70;99.90;;;;;;5065842;28;20418;-78
2023/01/01 12:21:27;;;;;;;3.37;1.40;;;13.70;99.90;;;;;;5046853;28;20464;-78
2023/01/01 12:23:55;;;;;;;7.03;1.60;;;13.70;99.90;;;;;;5065653;28;20458;-78
2023/01/01 12:26:26;;;;;;;7.13;1.93;;;13.70;99.90;;;;;;5064466;28;20458;-78
2023/01/01 12:29:27;;;;;;;6.17;1.70;;;13.70;99.90;;;;;;5063159;28;20418;-78
2023/01/01 12:32:05;;;;;;;6.70;1.80;;;13.70;99.90;;;;;;5051372;28;20438;-78
2023/01/01 12:34:38;;;;;;;5.83;1.57;;;13.70;99.90;;;;;;5068142;28;20418;-79
2023/01/01 12:37:16;;;;;;;6.60;2.00;;;13.70;99.90;;;;;;5049643;28;20462;-78
2023/01/01 12:40:26;;;;;;;7.77;1.90;;;13.70;99.90;;;;;;5057968;28;20431;-78
2023/01/01 12:43:01;;;;;;;6.00;1.87;;;13.70;99.90;;;;;;5034065;28;20470;-78
2023/01/01 12:45:55;;;;;;;12.13;2.63;;;13.70;99.90;;;;;;5057990;28;20453;-78
2023/01/01 12:48:42;;;;;;;5.27;2.10;;;13.70;99.90;;;;;;5057763;28;20461;-78
2023/01/01 12:51:25;;;;;;;5.63;2.00;;;13.60;99.90;;;;;;5043358;28;20538;-78
2023/01/01 12:54:25;;;;;;;9.40;2.33;;;13.70;99.90;;;;;;5043916;28;20469;-78
2023/01/01 12:56:59;;;;;;;5.07;1.60;;;13.60;99.90;;;;;;5045954;28;20492;-79
2023/01/01 12:59:32;;;;;;;7.80;1.60;;;13.60;99.90;;;;;;5064448;28;20433;-78
2023/01/01 13:02:10;;;;;;;7.23;2.03;;;13.70;99.90;;;;;;5040660;28;20545;-77
2023/01/01 13:04:41;;;;;;;7.57;2.20;;;13.60;99.90;;;;;;5059057;28;20830;-77
2023/01/01 13:07:12;;;;;;;7.63;1.93;;;13.70;99.90;;;;;;5062014;28;20549;-78
2023/01/01 13:09:44;;;;;;;10.97;2.30;;;13.60;99.90;;;;;;5041225;28;20508;-76
2023/01/01 13:12:17;;;;;;;6.53;2.10;;;13.70;99.90;;;;;;5040262;28;20446;-77